LVFTR SABE-SAAR
Flight info
| Callsign | LVFTR |
|---|---|
| Flight time | 0h 38m |
| Altitude | 20000 |
| Route | ATOVO4B ATOVO W5 ESKON |
| Aircraft | C700/M-SBDGHM1RWXY/LB2 |
Departure
| Time | 2026-04-17 22:23 |
|---|---|
| Airport | Aeroparque Jorge Newbery (SABE) |
Arrival
| Time | 2026-04-17 23:01 |
|---|---|
| Airport | Rosario Islas Malvinas International Airport (SAAR) |
| Time | Latitude | Longitude | Altitude | Speed | Heading |
|---|---|---|---|---|---|
| 2026-04-17 21:53 | -34.56278 | -58.41254 | 21 ft | 0 kts | 214° |
| 2026-04-17 22:09 | -34.56278 | -58.41255 | 21 ft | 1 kts | 214° |
| 2026-04-17 22:09 | -34.56290 | -58.41305 | 24 ft | 12 kts | 304° |
| 2026-04-17 22:09 | -34.56229 | -58.41411 | 22 ft | 19 kts | 304° |
| 2026-04-17 22:10 | -34.56174 | -58.41484 | 23 ft | 4 kts | 27° |
| 2026-04-17 22:10 | -34.56143 | -58.41459 | 21 ft | 0 kts | 33° |
| 2026-04-17 22:10 | -34.56106 | -58.41428 | 21 ft | 13 kts | 35° |
| 2026-04-17 22:11 | -34.56019 | -58.41352 | 21 ft | 17 kts | 34° |
| 2026-04-17 22:11 | -34.55925 | -58.41303 | 22 ft | 10 kts | 341° |
| 2026-04-17 22:11 | -34.55885 | -58.41376 | 23 ft | 13 kts | 294° |
| 2026-04-17 22:11 | -34.55833 | -58.41513 | 23 ft | 23 kts | 296° |
| 2026-04-17 22:12 | -34.55776 | -58.41645 | 23 ft | 17 kts | 298° |
| 2026-04-17 22:12 | -34.55715 | -58.41783 | 22 ft | 20 kts | 298° |
| 2026-04-17 22:12 | -34.55636 | -58.41931 | 21 ft | 22 kts | 304° |
| 2026-04-17 22:12 | -34.55551 | -58.42078 | 21 ft | 17 kts | 307° |
| 2026-04-17 22:13 | -34.55493 | -58.42171 | 22 ft | 9 kts | 307° |
| 2026-04-17 22:13 | -34.55448 | -58.42246 | 22 ft | 13 kts | 305° |
| 2026-04-17 22:13 | -34.55413 | -58.42301 | 21 ft | 0 kts | 309° |
| 2026-04-17 22:14 | -34.55394 | -58.42330 | 22 ft | 10 kts | 309° |
| 2026-04-17 22:14 | -34.55385 | -58.42345 | 23 ft | 0 kts | 303° |
| 2026-04-17 22:19 | -34.55378 | -58.42358 | 21 ft | 0 kts | 300° |
| 2026-04-17 22:20 | -34.55377 | -58.42361 | 21 ft | 3 kts | 296° |
| 2026-04-17 22:20 | -34.55364 | -58.42408 | 21 ft | 9 kts | 280° |
| 2026-04-17 22:21 | -34.55370 | -58.42496 | 22 ft | 12 kts | 231° |
| 2026-04-17 22:21 | -34.55407 | -58.42500 | 22 ft | 5 kts | 138° |
| 2026-04-17 22:21 | -34.55434 | -58.42455 | 21 ft | 8 kts | 126° |
| 2026-04-17 22:21 | -34.55456 | -58.42419 | 23 ft | 0 kts | 124° |
| 2026-04-17 22:22 | -34.55465 | -58.42403 | 23 ft | 22 kts | 125° |
| 2026-04-17 22:23 | -34.55766 | -58.41865 | 19 ft | 128 kts | 123° |
| 2026-04-17 22:23 | -34.56398 | -58.40735 | 437 ft | 184 kts | 127° |
| 2026-04-17 22:23 | -34.57227 | -58.39197 | 854 ft | 227 kts | 122° |
| 2026-04-17 22:23 | -34.57847 | -58.37558 | 1392 ft | 213 kts | 104° |
| 2026-04-17 22:24 | -34.57567 | -58.35802 | 1892 ft | 219 kts | 59° |
| 2026-04-17 22:24 | -34.56416 | -58.34580 | 2423 ft | 223 kts | 34° |
| 2026-04-17 22:24 | -34.55077 | -58.33620 | 2990 ft | 226 kts | 33° |
| 2026-04-17 22:24 | -34.53649 | -58.32565 | 3735 ft | 258 kts | 34° |
| 2026-04-17 22:25 | -34.52064 | -58.31367 | 4670 ft | 277 kts | 33° |
| 2026-04-17 22:25 | -34.50310 | -58.30312 | 5641 ft | 289 kts | 18° |
| 2026-04-17 22:25 | -34.48311 | -58.29908 | 6650 ft | 295 kts | 1° |
| 2026-04-17 22:25 | -34.46262 | -58.30199 | 7658 ft | 297 kts | 343° |
| 2026-04-17 22:26 | -34.44367 | -58.31178 | 8714 ft | 296 kts | 325° |
| 2026-04-17 22:26 | -34.42645 | -58.32557 | 9838 ft | 298 kts | 322° |
| 2026-04-17 22:26 | -34.40867 | -58.33954 | 10925 ft | 312 kts | 323° |
| 2026-04-17 22:26 | -34.39023 | -58.35417 | 12134 ft | 320 kts | 323° |
| 2026-04-17 22:27 | -34.37157 | -58.36893 | 13440 ft | 326 kts | 323° |
| 2026-04-17 22:27 | -34.35239 | -58.38407 | 14697 ft | 333 kts | 323° |
| 2026-04-17 22:27 | -34.33280 | -58.39953 | 16005 ft | 339 kts | 322° |
| 2026-04-17 22:27 | -34.31288 | -58.41526 | 17380 ft | 344 kts | 322° |
| 2026-04-17 22:28 | -34.29226 | -58.43159 | 17900 ft | 377 kts | 322° |
| 2026-04-17 22:28 | -34.26937 | -58.44973 | 17909 ft | 404 kts | 323° |
| 2026-04-17 22:28 | -34.24535 | -58.46845 | 17913 ft | 414 kts | 323° |
| 2026-04-17 22:28 | -34.22102 | -58.48746 | 17913 ft | 416 kts | 323° |
| 2026-04-17 22:29 | -34.19777 | -58.50825 | 17901 ft | 413 kts | 314° |
| 2026-04-17 22:29 | -34.17780 | -58.53320 | 17898 ft | 409 kts | 306° |
| 2026-04-17 22:29 | -34.16168 | -58.56077 | 17892 ft | 405 kts | 297° |
| 2026-04-17 22:29 | -34.14915 | -58.59114 | 17887 ft | 402 kts | 289° |
| 2026-04-17 22:30 | -34.14067 | -58.62322 | 17886 ft | 398 kts | 281° |
| 2026-04-17 22:30 | -34.13636 | -58.65618 | 17885 ft | 396 kts | 272° |
| 2026-04-17 22:30 | -34.13620 | -58.68930 | 17887 ft | 394 kts | 264° |
| 2026-04-17 22:30 | -34.13970 | -58.72205 | 17889 ft | 393 kts | 259° |
| 2026-04-17 22:31 | -34.14355 | -58.75427 | 17890 ft | 393 kts | 261° |
| 2026-04-17 22:31 | -34.14723 | -58.78702 | 17891 ft | 393 kts | 261° |
| 2026-04-17 22:31 | -34.15108 | -58.81985 | 17892 ft | 393 kts | 260° |
| 2026-04-17 22:31 | -34.15491 | -58.85217 | 17894 ft | 394 kts | 260° |
| 2026-04-17 22:32 | -34.15870 | -58.88490 | 17897 ft | 393 kts | 260° |
| 2026-04-17 22:32 | -34.16168 | -58.91772 | 17894 ft | 395 kts | 266° |
| 2026-04-17 22:32 | -34.16044 | -58.95102 | 17890 ft | 397 kts | 274° |
| 2026-04-17 22:32 | -34.15513 | -58.98385 | 17889 ft | 400 kts | 282° |
| 2026-04-17 22:33 | -34.14568 | -59.01567 | 17885 ft | 403 kts | 291° |
| 2026-04-17 22:33 | -34.13238 | -59.04521 | 17887 ft | 407 kts | 299° |
| 2026-04-17 22:33 | -34.11518 | -59.07250 | 17882 ft | 410 kts | 307° |
| 2026-04-17 22:33 | -34.09678 | -59.09880 | 17890 ft | 410 kts | 306° |
| 2026-04-17 22:34 | -34.07856 | -59.12536 | 17889 ft | 410 kts | 306° |
| 2026-04-17 22:34 | -34.06027 | -59.15178 | 17888 ft | 410 kts | 306° |
| 2026-04-17 22:34 | -34.04206 | -59.17789 | 17886 ft | 410 kts | 306° |
| 2026-04-17 22:34 | -34.02379 | -59.20429 | 17886 ft | 410 kts | 306° |
| 2026-04-17 22:35 | -34.00558 | -59.23063 | 17894 ft | 410 kts | 306° |
| 2026-04-17 22:35 | -33.98726 | -59.25702 | 17890 ft | 410 kts | 306° |
| 2026-04-17 22:35 | -33.96892 | -59.28338 | 17892 ft | 410 kts | 306° |
| 2026-04-17 22:35 | -33.95063 | -59.30972 | 17894 ft | 410 kts | 306° |
| 2026-04-17 22:36 | -33.93227 | -59.33613 | 17891 ft | 410 kts | 306° |
| 2026-04-17 22:36 | -33.91413 | -59.36218 | 17897 ft | 410 kts | 307° |
| 2026-04-17 22:36 | -33.89580 | -59.38850 | 17895 ft | 410 kts | 306° |
| 2026-04-17 22:36 | -33.87747 | -59.41480 | 17891 ft | 410 kts | 306° |
| 2026-04-17 22:37 | -33.85908 | -59.44116 | 17898 ft | 410 kts | 307° |
| 2026-04-17 22:37 | -33.84072 | -59.46748 | 17896 ft | 410 kts | 307° |
| 2026-04-17 22:37 | -33.82235 | -59.49376 | 17901 ft | 410 kts | 307° |
| 2026-04-17 22:37 | -33.80394 | -59.52010 | 17897 ft | 410 kts | 307° |
| 2026-04-17 22:38 | -33.78558 | -59.54635 | 17896 ft | 410 kts | 307° |
| 2026-04-17 22:38 | -33.76748 | -59.57219 | 17892 ft | 409 kts | 307° |
| 2026-04-17 22:38 | -33.74907 | -59.59847 | 17897 ft | 410 kts | 307° |
| 2026-04-17 22:38 | -33.73075 | -59.62461 | 17898 ft | 410 kts | 307° |
| 2026-04-17 22:39 | -33.71855 | -59.64199 | 17897 ft | 410 kts | 307° |
| 2026-04-17 22:39 | -33.70010 | -59.66827 | 17898 ft | 410 kts | 307° |
| 2026-04-17 22:39 | -33.65719 | -59.72921 | 17897 ft | 410 kts | 307° |
| 2026-04-17 22:40 | -33.63873 | -59.75539 | 17902 ft | 410 kts | 307° |
| 2026-04-17 22:40 | -33.62652 | -59.77272 | 17903 ft | 410 kts | 307° |
| 2026-04-17 22:40 | -33.60808 | -59.79884 | 17902 ft | 410 kts | 307° |
| 2026-04-17 22:40 | -33.58962 | -59.82496 | 17902 ft | 410 kts | 307° |
| 2026-04-17 22:41 | -33.57107 | -59.85122 | 17902 ft | 410 kts | 307° |
| 2026-04-17 22:41 | -33.55259 | -59.87732 | 17902 ft | 410 kts | 307° |
| 2026-04-17 22:41 | -33.53417 | -59.90339 | 17903 ft | 410 kts | 307° |
| 2026-04-17 22:41 | -33.51565 | -59.92955 | 17902 ft | 411 kts | 307° |
| 2026-04-17 22:42 | -33.49726 | -59.95545 | 17908 ft | 411 kts | 307° |
| 2026-04-17 22:42 | -33.47874 | -59.98152 | 17903 ft | 411 kts | 307° |
| 2026-04-17 22:42 | -33.46018 | -60.00769 | 17903 ft | 411 kts | 307° |
| 2026-04-17 22:42 | -33.44172 | -60.03367 | 17729 ft | 403 kts | 307° |
| 2026-04-17 22:43 | -33.42384 | -60.05877 | 17403 ft | 388 kts | 307° |
| 2026-04-17 22:43 | -33.40669 | -60.08287 | 17028 ft | 382 kts | 307° |
| 2026-04-17 22:43 | -33.38956 | -60.10698 | 16645 ft | 379 kts | 307° |
| 2026-04-17 22:43 | -33.37241 | -60.13105 | 16267 ft | 378 kts | 307° |
| 2026-04-17 22:44 | -33.35532 | -60.15500 | 15844 ft | 377 kts | 307° |
| 2026-04-17 22:44 | -33.33850 | -60.17861 | 15432 ft | 375 kts | 307° |
| 2026-04-17 22:44 | -33.32155 | -60.20234 | 15012 ft | 373 kts | 307° |
| 2026-04-17 22:44 | -33.30474 | -60.22587 | 14585 ft | 372 kts | 307° |
| 2026-04-17 22:45 | -33.28794 | -60.24938 | 14163 ft | 370 kts | 307° |
| 2026-04-17 22:45 | -33.27124 | -60.27275 | 13746 ft | 368 kts | 307° |
| 2026-04-17 22:45 | -33.25461 | -60.29597 | 13284 ft | 366 kts | 308° |
| 2026-04-17 22:45 | -33.23829 | -60.31880 | 12773 ft | 360 kts | 308° |
| 2026-04-17 22:46 | -33.22240 | -60.34088 | 12273 ft | 342 kts | 308° |
| 2026-04-17 22:46 | -33.20748 | -60.36167 | 11732 ft | 303 kts | 307° |
| 2026-04-17 22:46 | -33.19359 | -60.38129 | 11185 ft | 312 kts | 307° |
| 2026-04-17 22:46 | -33.17976 | -60.40072 | 10653 ft | 307 kts | 307° |
| 2026-04-17 22:47 | -33.16595 | -60.41994 | 10118 ft | 303 kts | 308° |
| 2026-04-17 22:47 | -33.15456 | -60.44070 | 9506 ft | 295 kts | 290° |
| 2026-04-17 22:47 | -33.14953 | -60.45890 | 9005 ft | 292 kts | 283° |
| 2026-04-17 22:47 | -33.14444 | -60.48204 | 8422 ft | 289 kts | 282° |
| 2026-04-17 22:48 | -33.13978 | -60.50447 | 7850 ft | 279 kts | 281° |
| 2026-04-17 22:48 | -33.13523 | -60.52692 | 7422 ft | 274 kts | 281° |
| 2026-04-17 22:48 | -33.13084 | -60.54864 | 7261 ft | 265 kts | 281° |
| 2026-04-17 22:48 | -33.12655 | -60.57001 | 7133 ft | 266 kts | 281° |
| 2026-04-17 22:49 | -33.12222 | -60.59156 | 7006 ft | 267 kts | 281° |
| 2026-04-17 22:49 | -33.11792 | -60.61292 | 6908 ft | 267 kts | 281° |
| 2026-04-17 22:49 | -33.11361 | -60.63441 | 6835 ft | 267 kts | 281° |
| 2026-04-17 22:49 | -33.10937 | -60.65546 | 6836 ft | 232 kts | 281° |
| 2026-04-17 22:50 | -33.10547 | -60.67438 | 6708 ft | 251 kts | 281° |
| 2026-04-17 22:50 | -33.10126 | -60.69512 | 6628 ft | 260 kts | 281° |
| 2026-04-17 22:50 | -33.09698 | -60.71645 | 6556 ft | 265 kts | 281° |
| 2026-04-17 22:50 | -33.09270 | -60.73788 | 6482 ft | 267 kts | 281° |
| 2026-04-17 22:51 | -33.08839 | -60.75946 | 6408 ft | 267 kts | 281° |
| 2026-04-17 22:51 | -33.08430 | -60.77974 | 6331 ft | 233 kts | 281° |
| 2026-04-17 22:51 | -33.08054 | -60.79813 | 6169 ft | 229 kts | 281° |
| 2026-04-17 22:51 | -33.07681 | -60.81628 | 5846 ft | 222 kts | 281° |
| 2026-04-17 22:52 | -33.07314 | -60.83410 | 5509 ft | 219 kts | 281° |
| 2026-04-17 22:52 | -33.06957 | -60.85139 | 5178 ft | 216 kts | 281° |
| 2026-04-17 22:52 | -33.06612 | -60.86865 | 5000 ft | 206 kts | 280° |
| 2026-04-17 22:52 | -33.06411 | -60.88503 | 4957 ft | 198 kts | 263° |
| 2026-04-17 22:53 | -33.06982 | -60.89949 | 4675 ft | 196 kts | 221° |
| 2026-04-17 22:53 | -33.08221 | -60.90633 | 4415 ft | 199 kts | 192° |
| 2026-04-17 22:53 | -33.09571 | -60.90964 | 4146 ft | 197 kts | 191° |
| 2026-04-17 22:53 | -33.10875 | -60.91242 | 3770 ft | 185 kts | 182° |
| 2026-04-17 22:54 | -33.12053 | -60.90746 | 3322 ft | 185 kts | 141° |
| 2026-04-17 22:54 | -33.12600 | -60.89403 | 3010 ft | 182 kts | 97° |
| 2026-04-17 22:54 | -33.12547 | -60.87963 | 3006 ft | 171 kts | 91° |
| 2026-04-17 22:54 | -33.12510 | -60.86537 | 3003 ft | 172 kts | 91° |
| 2026-04-17 22:55 | -33.12459 | -60.85110 | 3008 ft | 171 kts | 91° |
| 2026-04-17 22:55 | -33.12411 | -60.83698 | 3002 ft | 173 kts | 91° |
| 2026-04-17 22:55 | -33.12360 | -60.82268 | 3003 ft | 172 kts | 91° |
| 2026-04-17 22:55 | -33.12309 | -60.80835 | 3003 ft | 173 kts | 91° |
| 2026-04-17 22:56 | -33.12257 | -60.79401 | 3003 ft | 173 kts | 91° |
| 2026-04-17 22:56 | -33.12202 | -60.77964 | 3000 ft | 173 kts | 91° |
| 2026-04-17 22:56 | -33.11993 | -60.76552 | 2998 ft | 178 kts | 65° |
| 2026-04-17 22:56 | -33.11038 | -60.75644 | 2993 ft | 182 kts | 15° |
| 2026-04-17 22:57 | -33.09781 | -60.75550 | 3005 ft | 182 kts | 360° |
| 2026-04-17 22:57 | -33.08527 | -60.75492 | 3008 ft | 182 kts | 2° |
| 2026-04-17 22:57 | -33.07262 | -60.75436 | 3013 ft | 182 kts | 1° |
| 2026-04-17 22:57 | -33.05987 | -60.75382 | 3010 ft | 183 kts | 1° |
| 2026-04-17 22:58 | -33.04718 | -60.75356 | 3040 ft | 176 kts | 354° |
| 2026-04-17 22:58 | -33.03616 | -60.75687 | 3072 ft | 167 kts | 334° |
| 2026-04-17 22:58 | -33.02595 | -60.76254 | 2891 ft | 160 kts | 332° |
| 2026-04-17 22:58 | -33.01597 | -60.76813 | 2703 ft | 158 kts | 331° |
| 2026-04-17 22:59 | -33.00611 | -60.77386 | 2487 ft | 156 kts | 331° |
| 2026-04-17 22:59 | -32.99634 | -60.77941 | 2269 ft | 157 kts | 332° |
| 2026-04-17 22:59 | -32.98720 | -60.78390 | 2048 ft | 153 kts | 336° |
| 2026-04-17 22:59 | -32.97696 | -60.78791 | 1810 ft | 157 kts | 341° |
| 2026-04-17 23:00 | -32.96648 | -60.79050 | 1495 ft | 154 kts | 349° |
| 2026-04-17 23:00 | -32.95589 | -60.79179 | 1241 ft | 153 kts | 354° |
| 2026-04-17 23:00 | -32.94531 | -60.79242 | 955 ft | 150 kts | 357° |
| 2026-04-17 23:00 | -32.93505 | -60.79171 | 612 ft | 147 kts | 8° |
| 2026-04-17 23:01 | -32.92535 | -60.78960 | 323 ft | 139 kts | 14° |
| 2026-04-17 23:01 | -32.91624 | -60.78751 | 126 ft | 125 kts | 11° |
| 2026-04-17 23:01 | -32.90857 | -60.78578 | 93 ft | 79 kts | 10° |
| 2026-04-17 23:01 | -32.90678 | -60.78528 | 92 ft | 4 kts | 341° |
| 2026-04-17 23:02 | -32.90683 | -60.78537 | 94 ft | 1 kts | 194° |
| 2026-04-17 23:02 | -32.90717 | -60.78548 | 92 ft | 7 kts | 198° |
| 2026-04-17 23:02 | -32.90776 | -60.78557 | 91 ft | 10 kts | 171° |
| 2026-04-17 23:02 | -32.90853 | -60.78552 | 92 ft | 13 kts | 179° |
| 2026-04-17 23:03 | -32.90951 | -60.78542 | 93 ft | 16 kts | 163° |
| 2026-04-17 23:03 | -32.91068 | -60.78489 | 91 ft | 20 kts | 152° |
| 2026-04-17 23:03 | -32.91190 | -60.78384 | 90 ft | 23 kts | 139° |
| 2026-04-17 23:03 | -32.91320 | -60.78254 | 90 ft | 26 kts | 142° |
| 2026-04-17 23:04 | -32.91391 | -60.78187 | 90 ft | 13 kts | 141° |
| 2026-04-17 23:04 | -32.91476 | -60.78176 | 90 ft | 8 kts | 203° |
| 2026-04-17 23:04 | -32.91526 | -60.78174 | 91 ft | 7 kts | 116° |
| 2026-04-17 23:04 | -32.91541 | -60.78116 | 90 ft | 9 kts | 99° |
| 2026-04-17 23:05 | -32.91542 | -60.78083 | 90 ft | 0 kts | 85° |